createdAt,value
2023-03-01T00:00:08.365Z,-1.27
2023-03-01T00:02:37.225Z,-1.79
2023-03-01T00:05:04.533Z,-2.17
2023-03-01T00:07:31.467Z,-2.51
2023-03-01T00:09:58.006Z,-2.79
2023-03-01T00:12:24.439Z,-3.05
2023-03-01T00:14:51.998Z,-3.28
2023-03-01T00:17:18.536Z,-3.50
2023-03-01T00:19:45.280Z,-3.70
2023-03-01T00:22:12.435Z,-3.88
2023-03-01T00:24:38.650Z,-3.71
2023-03-01T00:27:06.756Z,-1.73
2023-03-01T00:29:33.204Z,0.03
2023-03-01T00:32:00.840Z,0.91
2023-03-01T00:34:27.488Z,0.63
2023-03-01T00:36:54.590Z,-0.43
2023-03-01T00:39:20.992Z,-1.27
2023-03-01T00:41:47.541Z,-1.88
2023-03-01T00:44:14.534Z,-2.34
2023-03-01T00:46:41.218Z,-2.71
2023-03-01T00:49:07.776Z,-3.01
2023-03-01T00:51:36.000Z,-3.27
2023-03-01T00:54:03.677Z,-3.52
2023-03-01T00:56:32.273Z,-3.74
2023-03-01T00:58:59.273Z,-3.95
2023-03-01T01:01:30.174Z,-4.14
2023-03-01T01:04:07.459Z,-4.00
2023-03-01T01:06:37.618Z,-2.33
2023-03-01T01:09:07.232Z,-0.86
2023-03-01T01:11:36.689Z,0.19
2023-03-01T01:14:03.736Z,0.75
2023-03-01T01:16:32.217Z,-0.08
2023-03-01T01:18:59.419Z,-1.17
2023-03-01T01:21:27.830Z,-1.97
2023-03-01T01:23:54.442Z,-2.57
2023-03-01T01:26:25.407Z,-3.01
2023-03-01T01:28:52.258Z,-3.36
2023-03-01T01:31:20.404Z,-3.66
2023-03-01T01:33:47.664Z,-3.91
2023-03-01T01:36:14.099Z,-4.16
2023-03-01T01:38:43.111Z,-4.38
2023-03-01T01:41:14.765Z,-4.56
2023-03-01T01:44:03.031Z,-4.31
2023-03-01T01:46:35.598Z,-2.25
2023-03-01T01:49:18.421Z,-0.77
2023-03-01T01:51:49.664Z,0.32
2023-03-01T01:54:50.973Z,1.03
2023-03-01T01:57:23.515Z,1.66
2023-03-01T01:59:56.094Z,2.17
2023-03-01T02:05:27.851Z,2.98
2023-03-01T02:07:56.440Z,3.36
2023-03-01T02:10:24.876Z,3.63
2023-03-01T02:12:53.574Z,3.79
2023-03-01T02:15:20.254Z,4.01
2023-03-01T02:17:46.645Z,4.12
2023-03-01T02:20:40.284Z,4.21
2023-03-01T02:23:08.508Z,4.26
2023-03-01T02:26:01.241Z,4.33
2023-03-01T02:28:32.820Z,4.31
2023-03-01T02:31:21.470Z,4.28
2023-03-01T02:33:51.799Z,4.26
2023-03-01T02:36:26.829Z,4.34
2023-03-01T02:38:57.300Z,4.50
2023-03-01T02:41:27.085Z,4.68
2023-03-01T02:43:53.943Z,4.78
2023-03-01T02:46:23.761Z,4.61
2023-03-01T02:48:53.105Z,4.49
2023-03-01T02:51:54.991Z,4.57
2023-03-01T02:54:30.532Z,4.63
2023-03-01T02:56:58.865Z,4.71
2023-03-01T02:59:34.378Z,4.85
2023-03-01T03:02:02.915Z,4.93
2023-03-01T03:04:29.738Z,4.96
2023-03-01T03:06:55.900Z,4.95
2023-03-01T03:09:23.006Z,4.92
2023-03-01T03:11:49.890Z,4.92
2023-03-01T03:14:17.614Z,5.03
2023-03-01T03:16:47.235Z,5.10
2023-03-01T03:19:17.354Z,5.18
2023-03-01T03:21:43.935Z,5.12
2023-03-01T03:24:10.378Z,3.95
2023-03-01T03:26:38.073Z,2.42
2023-03-01T03:29:04.650Z,1.23
2023-03-01T03:31:31.407Z,0.24
2023-03-01T03:33:59.600Z,-0.54
2023-03-01T03:36:26.518Z,-1.21
2023-03-01T03:38:55.942Z,-1.79
2023-03-01T03:41:22.702Z,-2.31
2023-03-01T03:43:49.555Z,-2.78
2023-03-01T03:46:18.478Z,-3.18
2023-03-01T03:48:46.464Z,-3.55
2023-03-01T03:51:15.121Z,-3.87
2023-03-01T03:53:43.752Z,-4.16
2023-03-01T03:56:10.902Z,-4.42
2023-03-01T03:58:37.817Z,-4.59
2023-03-01T04:01:04.899Z,-3.34
2023-03-01T04:03:33.114Z,-1.64
2023-03-01T04:06:00.678Z,-0.22
2023-03-01T04:08:28.835Z,0.82
2023-03-01T04:11:21.567Z,1.33
2023-03-01T04:13:48.294Z,1.79
2023-03-01T04:16:14.573Z,2.16
2023-03-01T04:18:40.869Z,2.51
2023-03-01T04:21:07.777Z,2.85
2023-03-01T04:23:34.545Z,3.08
2023-03-01T04:26:00.880Z,3.26
2023-03-01T04:28:37.232Z,3.48
2023-03-01T04:31:33.252Z,3.71
2023-03-01T04:34:00.932Z,3.89
2023-03-01T04:36:29.596Z,3.98
2023-03-01T04:38:56.712Z,4.12
2023-03-01T04:41:25.103Z,4.27
2023-03-01T04:43:52.593Z,4.39
2023-03-01T04:46:21.145Z,4.44
2023-03-01T04:48:49.840Z,4.44
2023-03-01T04:51:17.394Z,4.40
2023-03-01T04:53:44.648Z,4.32
2023-03-01T04:56:11.965Z,4.32
2023-03-01T04:58:38.630Z,4.37
2023-03-01T05:01:16.676Z,4.47
2023-03-01T05:03:45.074Z,4.58
2023-03-01T05:06:12.799Z,4.60
2023-03-01T05:08:43.167Z,4.65
2023-03-01T05:11:10.551Z,4.65
2023-03-01T05:13:38.614Z,4.71
2023-03-01T05:16:07.079Z,4.80
2023-03-01T05:18:34.570Z,4.87
2023-03-01T05:21:08.144Z,4.92
2023-03-01T05:23:35.277Z,4.98
2023-03-01T05:26:05.357Z,5.04
2023-03-01T05:28:33.301Z,5.05
2023-03-01T05:31:00.486Z,5.02
2023-03-01T05:33:28.498Z,5.00
2023-03-01T05:35:55.290Z,5.01
2023-03-01T05:38:23.112Z,5.05
2023-03-01T05:40:52.469Z,5.12
2023-03-01T05:43:19.935Z,5.20
2023-03-01T05:45:46.343Z,5.07
2023-03-01T05:48:13.825Z,3.77
2023-03-01T05:50:46.748Z,2.29
2023-03-01T05:53:15.915Z,1.08
2023-03-01T05:55:43.352Z,0.16
2023-03-01T05:58:16.443Z,-0.60
2023-03-01T06:00:44.672Z,-1.27
2023-03-01T06:03:13.118Z,-1.83
2023-03-01T06:05:41.124Z,-2.33
2023-03-01T06:08:08.281Z,-2.79
2023-03-01T06:10:34.788Z,-3.19
2023-03-01T06:13:01.510Z,-3.55
2023-03-01T06:15:28.211Z,-3.87
2023-03-01T06:17:59.679Z,-4.16
2023-03-01T06:20:28.555Z,-4.41
2023-03-01T06:22:55.234Z,-4.61
2023-03-01T06:25:24.308Z,-3.79
2023-03-01T06:27:53.400Z,-1.49
2023-03-01T06:30:22.951Z,0.28
2023-03-01T06:32:50.300Z,1.40
2023-03-01T06:35:18.665Z,2.19
2023-03-01T06:37:46.468Z,2.87
2023-03-01T06:40:14.446Z,3.44
2023-03-01T06:42:43.002Z,3.89
2023-03-01T06:45:10.622Z,4.24
2023-03-01T06:47:37.032Z,4.59
2023-03-01T06:50:05.327Z,4.91
2023-03-01T06:52:32.257Z,5.19
2023-03-01T06:54:58.679Z,4.72
2023-03-01T06:57:25.739Z,3.57
2023-03-01T06:59:52.262Z,2.60
2023-03-01T07:02:19.210Z,1.60
2023-03-01T07:04:46.524Z,0.70
2023-03-01T07:07:13.358Z,0.06
2023-03-01T07:09:40.774Z,-0.41
2023-03-01T07:12:07.597Z,-0.73
2023-03-01T07:14:37.133Z,-0.99
2023-03-01T07:17:03.497Z,-1.22
2023-03-01T07:19:30.109Z,-1.34
2023-03-01T07:21:57.434Z,-1.28
2023-03-01T07:24:23.998Z,-1.11
2023-03-01T07:26:52.024Z,-0.94
2023-03-01T07:29:19.315Z,-0.84
2023-03-01T07:31:46.366Z,-0.79
2023-03-01T07:34:13.593Z,-0.76
2023-03-01T07:36:43.137Z,-0.76
2023-03-01T07:39:11.214Z,-0.78
2023-03-01T07:41:40.870Z,-0.81
2023-03-01T07:44:09.890Z,-0.85
2023-03-01T07:46:36.216Z,-0.89
2023-03-01T07:49:03.175Z,-0.93
2023-03-01T07:51:34.010Z,-0.96
2023-03-01T07:54:01.014Z,-0.99
2023-03-01T07:56:27.765Z,-1.00
2023-03-01T07:58:56.711Z,-0.96
2023-03-01T08:01:24.596Z,-0.50
2023-03-01T08:03:51.521Z,1.58
2023-03-01T08:06:18.739Z,3.32
2023-03-01T08:08:46.459Z,4.57
2023-03-01T08:11:14.709Z,5.31
2023-03-01T08:13:44.309Z,4.70
2023-03-01T08:16:17.152Z,3.84
2023-03-01T08:18:44.347Z,3.17
2023-03-01T08:21:15.246Z,2.80
2023-03-01T08:23:42.739Z,2.61
2023-03-01T08:26:19.490Z,2.46
2023-03-01T08:28:48.600Z,2.35
2023-03-01T08:31:20.118Z,2.23
2023-03-01T08:33:55.822Z,2.12
2023-03-01T08:36:35.780Z,2.07
2023-03-01T08:39:02.671Z,2.07
2023-03-01T08:41:30.091Z,2.08
2023-03-01T08:43:59.817Z,2.14
2023-03-01T08:46:37.352Z,2.18
2023-03-01T08:49:35.185Z,2.23
2023-03-01T08:52:03.803Z,2.42
2023-03-01T08:54:30.208Z,2.66
2023-03-01T08:57:04.578Z,2.95
2023-03-01T08:59:31.467Z,3.35
2023-03-01T09:01:57.940Z,3.87
2023-03-01T09:04:24.776Z,4.43
2023-03-01T09:06:52.045Z,4.91
2023-03-01T09:09:18.835Z,5.49
2023-03-01T09:11:47.093Z,6.01
2023-03-01T09:14:15.675Z,6.40
2023-03-01T09:16:43.010Z,6.70
2023-03-01T09:19:13.083Z,6.96
2023-03-01T09:21:41.373Z,7.32
2023-03-01T09:24:15.662Z,7.75
2023-03-01T09:26:43.664Z,8.24
2023-03-01T09:29:15.175Z,8.56
2023-03-01T09:31:42.282Z,8.86
2023-03-01T09:34:10.588Z,9.16
2023-03-01T09:36:40.471Z,9.27
2023-03-01T09:39:10.160Z,9.47
2023-03-01T09:42:01.257Z,9.69
2023-03-01T09:44:44.814Z,9.67
2023-03-01T09:47:22.313Z,9.45
2023-03-01T09:50:30.057Z,9.17
2023-03-01T09:52:57.817Z,8.87
2023-03-01T09:55:38.019Z,8.60
2023-03-01T09:58:32.701Z,8.44
2023-03-01T10:01:11.449Z,8.34
2023-03-01T10:03:56.199Z,8.34
2023-03-01T10:06:34.579Z,8.43
2023-03-01T10:09:18.047Z,8.46
2023-03-01T10:11:51.104Z,8.45
2023-03-01T10:14:45.225Z,8.48
2023-03-01T10:17:32.426Z,8.63
2023-03-01T10:20:22.238Z,8.92
2023-03-01T10:22:54.072Z,9.11
2023-03-01T10:25:41.756Z,9.32
2023-03-01T10:28:43.326Z,9.55
2023-03-01T10:31:19.777Z,9.66
2023-03-01T10:33:48.746Z,9.54
2023-03-01T10:36:20.200Z,9.38
2023-03-01T10:38:55.854Z,9.11
2023-03-01T10:41:31.292Z,8.80
2023-03-01T10:44:03.044Z,8.66
2023-03-01T10:46:38.374Z,8.68
2023-03-01T10:49:19.782Z,8.76
2023-03-01T10:51:52.158Z,9.03
2023-03-01T10:54:22.048Z,9.33
2023-03-01T10:56:58.721Z,9.71
2023-03-01T10:59:30.385Z,10.05
2023-03-01T11:02:24.447Z,10.17
2023-03-01T11:04:59.506Z,10.26
2023-03-01T11:07:26.610Z,10.13
2023-03-01T11:09:54.652Z,9.88
2023-03-01T11:12:22.152Z,10.08
2023-03-01T11:14:58.391Z,10.47
2023-03-01T11:17:31.606Z,10.83
2023-03-01T11:20:16.447Z,11.13
2023-03-01T11:23:10.632Z,11.40
2023-03-01T11:25:41.427Z,11.68
2023-03-01T11:28:13.365Z,11.81
2023-03-01T11:30:53.068Z,11.74
2023-03-01T11:34:06.046Z,11.85
2023-03-01T11:36:39.629Z,12.38
2023-03-01T11:39:34.207Z,12.58
2023-03-01T11:42:41.338Z,12.63
2023-03-01T11:45:12.444Z,12.44
2023-03-01T11:48:04.977Z,12.32
2023-03-01T11:50:44.329Z,12.25
2023-03-01T11:53:20.030Z,12.42
2023-03-01T11:56:10.580Z,12.79
2023-03-01T11:59:00.148Z,13.18
2023-03-01T12:01:55.614Z,13.50
2023-03-01T12:04:53.983Z,13.68
2023-03-01T12:07:42.316Z,13.68
2023-03-01T12:10:24.484Z,13.59
2023-03-01T12:13:39.272Z,13.46
2023-03-01T12:16:37.590Z,13.33
2023-03-01T12:19:15.245Z,13.29
2023-03-01T12:22:00.180Z,13.21
2023-03-01T12:24:54.054Z,13.10
2023-03-01T12:27:52.161Z,13.07
2023-03-01T12:30:29.199Z,12.98
2023-03-01T12:33:02.406Z,12.73
2023-03-01T12:35:50.184Z,12.33
2023-03-01T12:38:39.812Z,11.92
2023-03-01T12:41:28.357Z,11.64
2023-03-01T12:44:16.929Z,11.36
2023-03-01T12:47:16.990Z,10.90
2023-03-01T12:49:58.491Z,10.47
2023-03-01T12:52:50.101Z,10.25
2023-03-01T12:55:35.406Z,10.08
2023-03-01T12:58:47.205Z,9.95
2023-03-01T13:01:28.788Z,9.84
2023-03-01T13:04:04.889Z,9.71
2023-03-01T13:06:50.492Z,9.51
2023-03-01T13:09:44.942Z,9.31
2023-03-01T13:12:49.917Z,9.07
2023-03-01T13:15:43.634Z,8.84
2023-03-01T13:18:22.367Z,8.64
2023-03-01T13:21:29.794Z,8.44
2023-03-01T13:24:20.340Z,8.14
2023-03-01T13:27:31.646Z,7.95
2023-03-01T13:30:23.087Z,7.80
2023-03-01T13:33:25.101Z,7.72
2023-03-01T13:36:32.627Z,7.63
2023-03-01T13:39:53.755Z,7.49
2023-03-01T13:43:05.774Z,7.44
2023-03-01T13:46:14.496Z,7.53
2023-03-01T13:49:46.319Z,7.76
2023-03-01T13:52:51.101Z,7.94
2023-03-01T13:56:12.225Z,8.25
2023-03-01T13:59:43.694Z,8.49
2023-03-01T14:03:12.753Z,8.71
2023-03-01T14:06:49.105Z,8.78
2023-03-01T14:10:21.130Z,8.66
2023-03-01T14:13:50.310Z,8.41
2023-03-01T14:17:10.758Z,8.23
2023-03-01T14:20:22.441Z,8.09
2023-03-01T14:23:28.555Z,7.93
2023-03-01T14:26:43.357Z,7.84
2023-03-01T14:29:49.458Z,7.78
2023-03-01T14:33:10.362Z,7.78
2023-03-01T14:36:43.372Z,7.92
2023-03-01T14:40:10.663Z,8.10
2023-03-01T14:42:47.542Z,8.29
2023-03-01T14:45:54.199Z,8.38
2023-03-01T14:49:20.296Z,8.55
2023-03-01T14:52:28.859Z,8.94
2023-03-01T14:55:38.899Z,9.37
2023-03-01T14:58:54.710Z,9.63
2023-03-01T15:02:14.614Z,9.52
2023-03-01T15:05:25.928Z,9.29
2023-03-01T15:08:48.849Z,8.97
2023-03-01T15:12:00.593Z,8.62
2023-03-01T15:15:16.188Z,8.27
2023-03-01T15:18:24.535Z,7.95
2023-03-01T15:21:18.315Z,7.67
2023-03-01T15:24:30.765Z,7.47
2023-03-01T15:27:08.159Z,7.28
2023-03-01T15:29:42.898Z,7.11
2023-03-01T15:32:51.790Z,6.94
2023-03-01T15:36:23.192Z,6.70
2023-03-01T15:39:45.365Z,6.44
2023-03-01T15:42:39.872Z,6.23
2023-03-01T15:45:35.258Z,6.06
2023-03-01T15:48:31.184Z,5.91
2023-03-01T15:51:18.228Z,5.74
2023-03-01T15:54:01.461Z,5.58
2023-03-01T15:56:44.672Z,5.43
2023-03-01T15:59:36.523Z,5.30
2023-03-01T16:02:25.138Z,5.13
2023-03-01T16:05:00.630Z,4.97
2023-03-01T16:07:52.139Z,4.83
2023-03-01T16:10:59.333Z,4.68
2023-03-01T16:13:37.985Z,4.52
2023-03-01T16:16:05.133Z,4.37
2023-03-01T16:18:42.780Z,4.24
2023-03-01T16:21:34.910Z,4.10
2023-03-01T16:24:09.558Z,3.94
2023-03-01T16:27:00.596Z,3.81
2023-03-01T16:29:49.863Z,3.65
2023-03-01T16:33:30.638Z,3.50
2023-03-01T16:37:03.218Z,3.30
2023-03-01T16:40:32.197Z,3.11
2023-03-01T16:44:07.787Z,2.91
2023-03-01T16:47:57.804Z,2.72
2023-03-01T16:51:25.509Z,2.53
2023-03-01T16:55:11.993Z,2.33
2023-03-01T16:58:40.317Z,2.13
2023-03-01T17:02:31.492Z,1.94
2023-03-01T17:06:16.113Z,1.73
2023-03-01T17:08:47.954Z,1.52
2023-03-01T17:12:14.156Z,1.35
2023-03-01T17:16:00.663Z,1.13
2023-03-01T18:06:36.017Z,-0.36
2023-03-01T18:09:21.348Z,-0.42
2023-03-01T18:12:11.924Z,-0.48
2023-03-01T18:15:20.230Z,-0.54
2023-03-01T18:18:21.573Z,-0.60
2023-03-01T18:21:34.910Z,-0.66
2023-03-01T18:24:15.732Z,-0.71
2023-03-01T18:27:42.620Z,-0.74
2023-03-01T18:31:24.954Z,-0.81
2023-03-01T18:35:11.832Z,-0.87
2023-03-01T18:38:58.623Z,-0.93
2023-03-01T18:42:36.252Z,-0.98
2023-03-01T18:45:24.169Z,-1.03
2023-03-01T18:47:53.116Z,-1.07
2023-03-01T18:50:21.874Z,-1.13
2023-03-01T18:52:54.659Z,-1.18
2023-03-01T18:55:21.903Z,-1.23
2023-03-01T18:57:50.631Z,-1.27
2023-03-01T19:00:18.959Z,-1.31
2023-03-01T19:02:48.773Z,-1.36
2023-03-01T19:06:16.438Z,-1.40
2023-03-01T19:09:36.133Z,-1.45
2023-03-01T19:12:19.567Z,-1.49
2023-03-01T19:15:07.887Z,-1.53
2023-03-01T19:17:55.415Z,-1.58
2023-03-01T19:20:22.706Z,-1.65
2023-03-01T19:22:50.916Z,-1.71
2023-03-01T19:25:19.232Z,-1.76
2023-03-01T19:27:49.356Z,-1.80
2023-03-01T19:30:16.654Z,-1.84
2023-03-01T19:32:43.912Z,-1.88
2023-03-01T19:35:14.411Z,-1.92
2023-03-01T19:37:49.906Z,-1.64
2023-03-01T19:40:18.396Z,0.17
2023-03-01T19:42:46.217Z,1.78
2023-03-01T19:45:14.767Z,2.98
2023-03-01T19:47:48.231Z,3.78
2023-03-01T19:50:16.129Z,3.25
2023-03-01T19:52:43.640Z,2.24
2023-03-01T19:55:13.856Z,1.50
2023-03-01T19:57:44.650Z,0.97
2023-03-01T20:00:13.348Z,0.58
2023-03-01T20:02:40.634Z,0.24
2023-03-01T20:05:09.197Z,-0.05
2023-03-01T20:07:36.475Z,-0.28
2023-03-01T20:10:03.889Z,-0.51
2023-03-01T20:12:33.093Z,-0.70
2023-03-01T20:15:00.312Z,-0.89
2023-03-01T20:17:30.049Z,-1.05
2023-03-01T20:19:59.976Z,-1.20
2023-03-01T20:22:28.234Z,-1.34
2023-03-01T20:24:55.615Z,-1.48
2023-03-01T20:27:23.094Z,-1.61
2023-03-01T20:29:50.616Z,-1.73
2023-03-01T20:32:18.555Z,-1.83
2023-03-01T20:34:45.864Z,-1.93
2023-03-01T20:37:13.974Z,-1.84
2023-03-01T20:39:40.969Z,-0.04
2023-03-01T20:42:08.416Z,1.78
2023-03-01T20:44:35.786Z,2.87
2023-03-01T20:47:03.283Z,3.52
2023-03-01T20:49:30.447Z,2.70
2023-03-01T20:51:57.928Z,1.66
2023-03-01T20:54:28.461Z,0.87
2023-03-01T20:56:56.759Z,0.30
2023-03-01T20:59:27.229Z,-0.16
2023-03-01T21:01:54.269Z,-0.51
2023-03-01T21:04:22.752Z,-0.80
2023-03-01T21:06:50.201Z,-1.05
2023-03-01T21:09:18.193Z,-1.27
2023-03-01T21:11:45.816Z,-1.47
2023-03-01T21:14:13.063Z,-1.67
2023-03-01T21:16:41.199Z,-1.83
2023-03-01T21:19:09.361Z,-1.99
2023-03-01T21:21:37.324Z,-2.13
2023-03-01T21:24:05.686Z,-2.27
2023-03-01T21:26:35.579Z,-2.16
2023-03-01T21:29:03.422Z,-0.33
2023-03-01T21:31:36.338Z,1.60
2023-03-01T21:34:07.525Z,2.59
2023-03-01T21:36:37.188Z,2.88
2023-03-01T21:39:06.498Z,1.90
2023-03-01T21:41:36.682Z,0.93
2023-03-01T21:44:06.761Z,0.24
2023-03-01T21:46:39.855Z,-0.24
2023-03-01T21:49:09.400Z,-0.61
2023-03-01T21:51:37.387Z,-0.91
2023-03-01T21:54:04.817Z,-1.18
2023-03-01T21:56:39.450Z,-1.42
2023-03-01T21:59:11.980Z,-1.65
2023-03-01T22:01:40.832Z,-1.86
2023-03-01T22:04:08.525Z,-2.05
2023-03-01T22:06:41.408Z,-2.23
2023-03-01T22:09:17.629Z,-2.39
2023-03-01T22:11:47.236Z,-2.56
2023-03-01T22:14:14.483Z,-2.69
2023-03-01T22:16:45.953Z,-2.62
2023-03-01T22:19:16.121Z,-0.90
2023-03-01T22:21:45.426Z,1.12
2023-03-01T22:24:15.434Z,2.29
2023-03-01T22:26:59.605Z,2.56
2023-03-01T22:29:31.504Z,1.40
2023-03-01T22:32:00.174Z,0.43
2023-03-01T22:34:33.540Z,-0.23
2023-03-01T22:37:01.527Z,-0.72
2023-03-01T22:39:28.867Z,-1.09
2023-03-01T22:41:56.699Z,-1.41
2023-03-01T22:44:26.294Z,-1.69
2023-03-01T22:46:53.787Z,-1.94
2023-03-01T22:49:22.587Z,-2.16
2023-03-01T22:51:51.310Z,-2.36
2023-03-01T22:54:19.803Z,-2.56
2023-03-01T22:56:48.283Z,-2.73
2023-03-01T22:59:19.484Z,-2.88
2023-03-01T23:01:48.106Z,-3.02
2023-03-01T23:04:20.432Z,-2.95
2023-03-01T23:06:52.306Z,-1.22
2023-03-01T23:09:27.252Z,0.59
2023-03-01T23:11:57.085Z,1.80
2023-03-01T23:14:26.338Z,2.06
2023-03-01T23:16:54.973Z,1.02
2023-03-01T23:19:22.519Z,0.07
2023-03-01T23:21:50.740Z,-0.59
2023-03-01T23:24:20.772Z,-1.07
2023-03-01T23:26:53.908Z,-1.44
2023-03-01T23:29:41.496Z,-1.75
2023-03-01T23:32:10.012Z,-2.06
2023-03-01T23:34:37.980Z,-2.31
2023-03-01T23:37:07.606Z,-2.54
2023-03-01T23:39:34.692Z,-2.75
2023-03-01T23:42:03.070Z,-2.93
2023-03-01T23:44:30.590Z,-3.10
2023-03-01T23:46:57.483Z,-3.25
2023-03-01T23:49:25.540Z,-3.40
2023-03-01T23:51:53.469Z,-3.27
2023-03-01T23:54:23.901Z,-1.64
2023-03-01T23:56:54.200Z,0.23
2023-03-01T23:59:24.161Z,1.37
